createdAt,value
2018-04-07T00:03:39.345Z,7.50
2018-04-07T00:09:44.481Z,11.57
2018-04-07T00:15:48.801Z,11.97
2018-04-07T00:21:53.138Z,14.47
2018-04-07T00:27:57.473Z,11.00
2018-04-07T00:34:01.793Z,9.23
2018-04-07T00:40:06.140Z,10.90
2018-04-07T00:46:10.491Z,7.33
2018-04-07T00:52:14.809Z,7.53
2018-04-07T00:58:19.149Z,16.10
2018-04-07T01:04:23.486Z,8.57
2018-04-07T01:10:28.620Z,7.70
2018-04-07T01:16:32.957Z,9.17
2018-04-07T01:22:37.285Z,9.53
2018-04-07T01:28:41.609Z,9.90
2018-04-07T01:34:45.971Z,11.30
2018-04-07T01:40:50.328Z,7.90
2018-04-07T01:46:54.646Z,10.23
2018-04-07T01:52:58.976Z,9.00
2018-04-07T01:59:03.305Z,11.30
2018-04-07T02:05:07.631Z,17.47
2018-04-07T02:11:11.965Z,6.93
2018-04-07T02:17:16.292Z,11.13
2018-04-07T02:23:21.389Z,10.17
2018-04-07T02:29:25.718Z,10.57
2018-04-07T02:35:30.069Z,8.90
2018-04-07T02:41:34.427Z,12.57
2018-04-07T02:47:38.748Z,7.67
2018-04-07T02:53:43.130Z,12.70
2018-04-07T02:59:47.450Z,12.77
2018-04-07T03:05:51.808Z,9.37
2018-04-07T03:11:56.153Z,8.97
2018-04-07T03:18:00.485Z,11.80
2018-04-07T03:24:04.839Z,11.30
2018-04-07T03:30:09.944Z,9.40
2018-04-07T03:36:14.301Z,13.47
2018-04-07T03:42:18.635Z,11.57
2018-04-07T03:48:22.970Z,10.47
2018-04-07T03:54:27.345Z,7.43
2018-04-07T04:00:31.666Z,9.27
2018-04-07T04:06:35.985Z,8.00
2018-04-07T04:12:40.318Z,10.00
2018-04-07T04:18:45.009Z,7.87
2018-04-07T04:24:49.342Z,11.07
2018-04-07T04:30:53.684Z,9.40
2018-04-07T04:36:58.036Z,11.10
2018-04-07T04:43:02.377Z,9.23
2018-04-07T04:49:06.711Z,6.37
2018-04-07T04:55:11.041Z,12.83
2018-04-07T05:01:15.364Z,8.37
2018-04-07T05:07:19.706Z,9.07
2018-04-07T05:13:24.029Z,12.70
2018-04-07T05:19:28.356Z,8.47
2018-04-07T05:25:32.689Z,15.87
2018-04-07T05:31:37.808Z,15.37
2018-04-07T05:37:42.135Z,11.90
2018-04-07T05:43:46.484Z,8.60
2018-04-07T05:49:50.811Z,14.30
2018-04-07T05:55:55.135Z,11.87
2018-04-07T06:01:59.478Z,14.37
2018-04-07T06:08:03.807Z,10.90
2018-04-07T06:14:08.122Z,8.33
2018-04-07T06:20:13.214Z,12.53
2018-04-07T06:26:17.532Z,19.10
2018-04-07T06:32:21.880Z,10.33
2018-04-07T06:38:26.226Z,12.70
2018-04-07T06:44:30.549Z,11.30
2018-04-07T06:50:35.650Z,9.00
2018-04-07T06:56:39.994Z,13.50
2018-04-07T07:02:44.343Z,13.90
2018-04-07T07:08:48.687Z,10.90
2018-04-07T07:14:53.041Z,17.50
2018-04-07T07:20:57.405Z,15.57
2018-04-07T07:27:02.520Z,7.90
2018-04-07T07:33:07.796Z,15.30
2018-04-07T07:39:12.133Z,12.67
2018-04-07T07:45:16.481Z,12.63
2018-04-07T07:51:20.825Z,11.47
2018-04-07T07:57:25.241Z,10.97
2018-04-07T08:03:29.575Z,11.27
2018-04-07T08:09:33.924Z,10.60
2018-04-07T08:15:38.281Z,10.10
2018-04-07T08:21:42.685Z,7.57
2018-04-07T08:27:47.012Z,8.10
2018-04-07T08:33:51.348Z,16.27
2018-04-07T08:39:55.702Z,11.20
2018-04-07T08:46:00.042Z,11.13
2018-04-07T08:52:04.391Z,10.43
2018-04-07T08:58:08.733Z,11.90
2018-04-07T09:04:13.074Z,13.70
2018-04-07T09:10:17.405Z,14.87
2018-04-07T09:16:21.749Z,12.87
2018-04-07T09:22:26.110Z,13.03
2018-04-07T09:28:30.881Z,15.23
2018-04-07T09:34:35.206Z,12.80
2018-04-07T09:40:39.568Z,14.03
2018-04-07T09:46:43.919Z,13.13
2018-04-07T09:52:48.258Z,10.10
2018-04-07T09:58:52.632Z,14.73
2018-04-07T10:04:56.969Z,13.03
2018-04-07T10:11:01.319Z,23.03
2018-04-07T10:17:06.637Z,14.00
2018-04-07T10:23:10.995Z,11.53
2018-04-07T10:29:16.091Z,8.77
2018-04-07T10:35:20.440Z,15.23
2018-04-07T10:41:24.768Z,13.20
2018-04-07T10:47:29.142Z,11.07
2018-04-07T10:53:33.487Z,11.47
2018-04-07T10:59:37.834Z,13.17
2018-04-07T11:05:42.169Z,10.70
2018-04-07T11:11:46.518Z,10.90
2018-04-07T11:17:50.858Z,12.20
2018-04-07T11:23:55.203Z,13.57
2018-04-07T11:29:59.587Z,10.60
2018-04-07T11:36:04.701Z,10.87
2018-04-07T11:42:09.041Z,13.23
2018-04-07T11:48:13.399Z,9.97
2018-04-07T11:54:18.578Z,11.30
2018-04-07T12:00:23.699Z,10.40
2018-04-07T12:06:28.041Z,10.53
2018-04-07T12:12:32.390Z,8.07
2018-04-07T12:18:36.715Z,8.67
2018-04-07T12:24:41.057Z,8.60
2018-04-07T12:30:45.406Z,7.70
2018-04-07T12:36:49.744Z,11.13
2018-04-07T12:42:54.132Z,9.50
2018-04-07T12:48:59.218Z,12.93
2018-04-07T12:55:03.574Z,10.47
2018-04-07T13:01:07.959Z,9.07
2018-04-07T13:07:13.062Z,11.20
2018-04-07T13:13:17.406Z,8.70
2018-04-07T13:19:21.745Z,12.10
2018-04-07T13:25:26.089Z,16.33
2018-04-07T13:31:30.460Z,17.60
2018-04-07T13:37:34.826Z,10.97
2018-04-07T13:43:39.163Z,12.13
2018-04-07T13:49:44.269Z,10.93
2018-04-07T13:55:48.613Z,11.93
2018-04-07T14:01:52.958Z,11.63
2018-04-07T14:07:57.316Z,8.70
2018-04-07T14:14:01.647Z,9.63
2018-04-07T14:20:05.997Z,9.00
2018-04-07T14:26:10.342Z,10.43
2018-04-07T14:32:14.697Z,9.83
2018-04-07T14:38:19.802Z,8.03
2018-04-07T14:44:24.133Z,11.40
2018-04-07T14:50:28.488Z,11.27
2018-04-07T14:56:32.852Z,12.10
2018-04-07T15:02:37.198Z,12.23
2018-04-07T15:08:41.533Z,10.87
2018-04-07T15:14:45.876Z,9.20
2018-04-07T15:20:50.239Z,10.00
2018-04-07T15:26:55.342Z,17.40
2018-04-07T15:32:59.695Z,13.30
2018-04-07T15:39:04.044Z,14.43
2018-04-07T15:45:08.439Z,9.53
2018-04-07T15:51:13.668Z,11.97
2018-04-07T15:57:18.043Z,10.57
2018-04-07T16:03:23.222Z,18.47
2018-04-07T16:09:27.651Z,13.40
2018-04-07T16:15:32.825Z,12.43
2018-04-07T16:21:37.214Z,9.77
2018-04-07T16:27:41.550Z,8.33
2018-04-07T16:33:45.907Z,10.20
2018-04-07T16:39:51.037Z,11.27
2018-04-07T16:45:55.394Z,23.77
2018-04-07T16:51:59.739Z,8.33
2018-04-07T16:58:04.077Z,11.10
2018-04-07T17:04:08.409Z,8.60
2018-04-07T17:10:13.259Z,7.73
2018-04-07T17:16:17.594Z,7.17
2018-04-07T17:22:21.934Z,13.30
2018-04-07T17:28:26.289Z,8.60
2018-04-07T17:34:30.629Z,12.30
2018-04-07T17:40:34.997Z,15.83
2018-04-07T17:46:40.105Z,12.07
2018-04-07T17:52:44.455Z,10.80
2018-04-07T17:58:48.811Z,11.67
2018-04-07T18:04:54.106Z,11.07
2018-04-07T18:10:58.449Z,13.97
2018-04-07T18:17:02.797Z,14.20
2018-04-07T18:23:07.147Z,15.07
2018-04-07T18:29:11.485Z,15.77
2018-04-07T18:35:15.865Z,20.23
2018-04-07T18:41:20.226Z,15.50
2018-04-07T18:47:24.569Z,16.80
2018-04-07T18:53:28.935Z,17.23
2018-04-07T18:59:33.298Z,19.20
2018-04-07T19:05:37.703Z,15.23
2018-04-07T19:11:42.821Z,14.17
2018-04-07T19:17:47.182Z,22.10
2018-04-07T19:23:51.534Z,17.47
2018-04-07T19:29:55.886Z,14.43
2018-04-07T19:36:01.031Z,19.27
2018-04-07T19:42:05.377Z,15.00
2018-04-07T19:48:09.725Z,17.90
2018-04-07T19:54:14.829Z,27.77
2018-04-07T20:00:19.190Z,19.50
2018-04-07T20:06:23.570Z,24.97
2018-04-07T20:12:28.707Z,22.20
2018-04-07T20:18:33.063Z,22.13
2018-04-07T20:24:38.182Z,26.60
2018-04-07T20:30:42.554Z,19.97
2018-04-07T20:36:46.906Z,23.37
2018-04-07T20:42:52.053Z,26.97
2018-04-07T20:48:56.407Z,23.73
2018-04-07T20:55:00.769Z,25.20
2018-04-07T21:01:05.128Z,26.50
2018-04-07T21:07:09.482Z,30.50
2018-04-07T21:13:13.845Z,24.73
2018-04-07T21:19:18.214Z,23.80
2018-04-07T21:25:22.573Z,23.83
2018-04-07T21:31:26.918Z,26.83
2018-04-07T21:37:31.279Z,22.13
2018-04-07T21:43:35.622Z,31.97
2018-04-07T21:49:39.970Z,27.43
2018-04-07T21:55:44.311Z,20.80
2018-04-07T22:01:48.720Z,24.80
2018-04-07T22:07:53.082Z,30.23
2018-04-07T22:13:57.424Z,31.33
2018-04-07T22:20:01.786Z,24.87
2018-04-07T22:26:06.159Z,26.50
2018-04-07T22:32:11.283Z,30.73
2018-04-07T22:38:15.627Z,27.70
2018-04-07T22:44:19.991Z,28.47
2018-04-07T22:50:24.368Z,32.67
2018-04-07T22:56:28.720Z,27.20
2018-04-07T23:02:33.071Z,29.50
2018-04-07T23:08:37.408Z,24.50
2018-04-07T23:14:41.770Z,26.63
2018-04-07T23:20:46.135Z,30.37
2018-04-07T23:26:50.465Z,30.97
2018-04-07T23:32:54.823Z,35.83
2018-04-07T23:38:59.178Z,23.97
2018-04-07T23:45:03.545Z,33.93
2018-04-07T23:51:07.900Z,31.07
2018-04-07T23:57:12.259Z,27.43
